sensor_id;sensor_type;location;lat;lon;timestamp;pressure;altitude;pressure_sealevel;temperature;humidity
21988;BME280;11158;53.404;-1.510;2023-01-28T00:02:03;102061.06;;;8.25;54.72
21988;BME280;11158;53.404;-1.510;2023-01-28T00:04:29;102048.03;;;8.94;52.99
21988;BME280;11158;53.404;-1.510;2023-01-28T00:06:55;102058.03;;;9.02;52.60
21988;BME280;11158;53.404;-1.510;2023-01-28T00:09:21;102055.09;;;8.74;53.23
21988;BME280;11158;53.404;-1.510;2023-01-28T00:11:46;102062.56;;;9.11;52.31
21988;BME280;11158;53.404;-1.510;2023-01-28T00:14:12;102067.94;;;9.21;52.05
21988;BME280;11158;53.404;-1.510;2023-01-28T00:16:40;102057.50;;;9.08;52.11
21988;BME280;11158;53.404;-1.510;2023-01-28T00:19:05;102052.09;;;8.89;52.54
21988;BME280;11158;53.404;-1.510;2023-01-28T00:21:32;102052.94;;;8.47;53.12
21988;BME280;11158;53.404;-1.510;2023-01-28T00:23:57;102053.00;;;8.78;53.04
21988;BME280;11158;53.404;-1.510;2023-01-28T00:26:23;102050.47;;;8.13;54.20
21988;BME280;11158;53.404;-1.510;2023-01-28T00:28:50;102051.03;;;7.85;55.77
21988;BME280;11158;53.404;-1.510;2023-01-28T00:31:19;102051.97;;;8.27;54.58
21988;BME280;11158;53.404;-1.510;2023-01-28T00:33:47;102045.50;;;8.41;54.21
21988;BME280;11158;53.404;-1.510;2023-01-28T00:36:13;102043.91;;;8.38;54.85
21988;BME280;11158;53.404;-1.510;2023-01-28T00:38:40;102046.47;;;8.40;54.17
21988;BME280;11158;53.404;-1.510;2023-01-28T00:41:14;102039.31;;;8.92;53.08
21988;BME280;11158;53.404;-1.510;2023-01-28T00:43:41;102038.53;;;8.71;53.39
21988;BME280;11158;53.404;-1.510;2023-01-28T00:46:09;102031.03;;;8.95;52.67
21988;BME280;11158;53.404;-1.510;2023-01-28T00:48:37;102028.66;;;8.92;52.50
21988;BME280;11158;53.404;-1.510;2023-01-28T00:51:05;102035.34;;;8.56;53.39
21988;BME280;11158;53.404;-1.510;2023-01-28T00:53:32;102044.75;;;8.39;54.04
21988;BME280;11158;53.404;-1.510;2023-01-28T00:56:00;102041.78;;;8.53;53.08
21988;BME280;11158;53.404;-1.510;2023-01-28T00:58:26;102051.88;;;8.17;54.70
21988;BME280;11158;53.404;-1.510;2023-01-28T01:00:52;102047.44;;;7.86;55.65
21988;BME280;11158;53.404;-1.510;2023-01-28T01:03:18;102041.72;;;7.47;56.69
21988;BME280;11158;53.404;-1.510;2023-01-28T01:05:46;102035.34;;;7.82;55.50
21988;BME280;11158;53.404;-1.510;2023-01-28T01:08:15;102043.22;;;8.04;55.18
21988;BME280;11158;53.404;-1.510;2023-01-28T01:10:41;102042.50;;;8.02;55.03
21988;BME280;11158;53.404;-1.510;2023-01-28T01:13:07;102043.22;;;8.57;54.37
21988;BME280;11158;53.404;-1.510;2023-01-28T01:15:33;102045.25;;;8.75;53.46
21988;BME280;11158;53.404;-1.510;2023-01-28T01:17:58;102043.91;;;8.38;54.16
21988;BME280;11158;53.404;-1.510;2023-01-28T01:20:27;102033.81;;;8.00;54.70
21988;BME280;11158;53.404;-1.510;2023-01-28T01:22:55;102031.38;;;8.29;54.37
21988;BME280;11158;53.404;-1.510;2023-01-28T01:25:22;102027.47;;;7.80;55.66
21988;BME280;11158;53.404;-1.510;2023-01-28T01:27:49;102019.16;;;7.94;55.44
21988;BME280;11158;53.404;-1.510;2023-01-28T01:30:15;102017.81;;;8.00;55.38
21988;BME280;11158;53.404;-1.510;2023-01-28T01:32:41;102018.66;;;8.01;55.49
21988;BME280;11158;53.404;-1.510;2023-01-28T01:35:09;102023.09;;;8.11;54.85
21988;BME280;11158;53.404;-1.510;2023-01-28T01:37:35;102023.28;;;8.19;54.31
21988;BME280;11158;53.404;-1.510;2023-01-28T01:40:01;102017.00;;;8.00;55.05
21988;BME280;11158;53.404;-1.510;2023-01-28T01:42:30;102014.84;;;8.14;55.19
21988;BME280;11158;53.404;-1.510;2023-01-28T01:45:01;102019.50;;;8.01;55.22
21988;BME280;11158;53.404;-1.510;2023-01-28T01:47:46;102024.63;;;7.93;55.29
21988;BME280;11158;53.404;-1.510;2023-01-28T01:52:44;102030.31;;;8.21;53.81
21988;BME280;11158;53.404;-1.510;2023-01-28T01:55:16;102031.94;;;7.80;55.47
21988;BME280;11158;53.404;-1.510;2023-01-28T01:57:44;102020.22;;;7.27;56.78
21988;BME280;11158;53.404;-1.510;2023-01-28T02:00:13;102018.94;;;7.65;56.67
21988;BME280;11158;53.404;-1.510;2023-01-28T02:02:43;102018.28;;;7.73;56.29
21988;BME280;11158;53.404;-1.510;2023-01-28T02:05:11;102014.00;;;7.93;55.58
21988;BME280;11158;53.404;-1.510;2023-01-28T02:07:38;102007.38;;;8.29;55.12
21988;BME280;11158;53.404;-1.510;2023-01-28T02:10:04;102005.88;;;8.88;53.24
21988;BME280;11158;53.404;-1.510;2023-01-28T02:12:46;101995.72;;;9.03;52.55
21988;BME280;11158;53.404;-1.510;2023-01-28T02:15:17;101989.25;;;8.75;53.35
21988;BME280;11158;53.404;-1.510;2023-01-28T02:17:44;101977.84;;;8.94;52.76
21988;BME280;11158;53.404;-1.510;2023-01-28T02:20:13;101983.91;;;8.96;52.54
21988;BME280;11158;53.404;-1.510;2023-01-28T02:28:12;101982.56;;;8.80;52.58
21988;BME280;11158;53.404;-1.510;2023-01-28T02:30:45;101978.38;;;8.36;53.99
21988;BME280;11158;53.404;-1.510;2023-01-28T02:33:17;101966.19;;;8.54;52.94
21988;BME280;11158;53.404;-1.510;2023-01-28T02:36:07;101984.09;;;8.73;53.37
21988;BME280;11158;53.404;-1.510;2023-01-28T02:38:40;101973.56;;;9.12;51.42
21988;BME280;11158;53.404;-1.510;2023-01-28T02:41:14;101979.84;;;9.01;51.72
21988;BME280;11158;53.404;-1.510;2023-01-28T02:43:45;101975.19;;;8.94;51.90
21988;BME280;11158;53.404;-1.510;2023-01-28T02:46:17;101980.22;;;8.87;51.64
21988;BME280;11158;53.404;-1.510;2023-01-28T02:49:07;101976.34;;;8.70;52.39
21988;BME280;11158;53.404;-1.510;2023-01-28T02:51:52;101980.75;;;8.81;52.36
21988;BME280;11158;53.404;-1.510;2023-01-28T03:00:03;101992.34;;;9.01;50.99
21988;BME280;11158;53.404;-1.510;2023-01-28T03:07:34;101975.25;;;8.73;52.07
21988;BME280;11158;53.404;-1.510;2023-01-28T03:10:03;101984.53;;;8.78;51.82
21988;BME280;11158;53.404;-1.510;2023-01-28T03:12:31;101984.28;;;8.60;52.01
21988;BME280;11158;53.404;-1.510;2023-01-28T03:15:22;101984.19;;;8.62;51.83
21988;BME280;11158;53.404;-1.510;2023-01-28T03:18:20;101974.19;;;8.54;52.22
21988;BME280;11158;53.404;-1.510;2023-01-28T03:21:10;101976.38;;;8.07;53.65
21988;BME280;11158;53.404;-1.510;2023-01-28T03:24:08;101978.38;;;7.94;53.97
21988;BME280;11158;53.404;-1.510;2023-01-28T03:29:42;101984.16;;;7.99;53.89
21988;BME280;11158;53.404;-1.510;2023-01-28T03:32:29;101985.50;;;7.72;54.72
21988;BME280;11158;53.404;-1.510;2023-01-28T03:35:15;101988.13;;;7.84;54.71
21988;BME280;11158;53.404;-1.510;2023-01-28T03:38:03;101989.50;;;7.99;54.45
21988;BME280;11158;53.404;-1.510;2023-01-28T03:40:55;101989.66;;;8.18;53.57
21988;BME280;11158;53.404;-1.510;2023-01-28T03:43:22;101980.34;;;8.34;52.70
21988;BME280;11158;53.404;-1.510;2023-01-28T03:45:48;101977.22;;;8.29;52.96
21988;BME280;11158;53.404;-1.510;2023-01-28T03:48:21;101979.63;;;8.32;52.79
21988;BME280;11158;53.404;-1.510;2023-01-28T03:50:47;101983.47;;;8.39;52.79
21988;BME280;11158;53.404;-1.510;2023-01-28T03:53:14;101988.47;;;8.32;52.30
21988;BME280;11158;53.404;-1.510;2023-01-28T03:55:41;101980.66;;;8.19;52.42
21988;BME280;11158;53.404;-1.510;2023-01-28T03:58:08;101984.03;;;8.22;52.45
21988;BME280;11158;53.404;-1.510;2023-01-28T04:00:34;101988.66;;;7.98;52.57
21988;BME280;11158;53.404;-1.510;2023-01-28T04:03:09;101987.56;;;7.69;53.37
21988;BME280;11158;53.404;-1.510;2023-01-28T04:06:08;101987.94;;;7.64;53.93
21988;BME280;11158;53.404;-1.510;2023-01-28T04:08:34;101992.31;;;7.65;53.68
21988;BME280;11158;53.404;-1.510;2023-01-28T04:11:00;102000.69;;;7.61;54.05
21988;BME280;11158;53.404;-1.510;2023-01-28T04:13:41;101991.00;;;7.60;53.61
21988;BME280;11158;53.404;-1.510;2023-01-28T04:16:07;101989.91;;;7.83;53.11
21988;BME280;11158;53.404;-1.510;2023-01-28T04:18:33;101993.66;;;7.92;53.08
21988;BME280;11158;53.404;-1.510;2023-01-28T04:20:59;101996.56;;;7.89;52.94
21988;BME280;11158;53.404;-1.510;2023-01-28T04:23:25;101992.97;;;7.46;53.40
21988;BME280;11158;53.404;-1.510;2023-01-28T04:25:51;101989.56;;;7.44;53.26
21988;BME280;11158;53.404;-1.510;2023-01-28T04:28:17;101985.16;;;7.22;53.96
21988;BME280;11158;53.404;-1.510;2023-01-28T04:30:42;101984.97;;;6.46;55.81
21988;BME280;11158;53.404;-1.510;2023-01-28T04:33:08;101992.94;;;6.69;55.58
21988;BME280;11158;53.404;-1.510;2023-01-28T04:35:34;101996.94;;;6.86;54.83
21988;BME280;11158;53.404;-1.510;2023-01-28T04:38:00;102004.28;;;6.93;54.69
21988;BME280;11158;53.404;-1.510;2023-01-28T04:40:26;102014.78;;;6.61;55.49
21988;BME280;11158;53.404;-1.510;2023-01-28T04:42:53;102007.66;;;6.96;55.02
21988;BME280;11158;53.404;-1.510;2023-01-28T04:45:19;102023.34;;;7.32;54.04
21988;BME280;11158;53.404;-1.510;2023-01-28T04:47:44;102014.63;;;7.30;53.68
21988;BME280;11158;53.404;-1.510;2023-01-28T04:50:10;102027.19;;;6.38;55.19
21988;BME280;11158;53.404;-1.510;2023-01-28T04:52:36;102017.47;;;6.84;55.26
21988;BME280;11158;53.404;-1.510;2023-01-28T04:55:02;102020.50;;;6.90;54.63
21988;BME280;11158;53.404;-1.510;2023-01-28T04:57:28;102015.91;;;6.81;54.88
21988;BME280;11158;53.404;-1.510;2023-01-28T04:59:54;102029.66;;;6.98;54.56
21988;BME280;11158;53.404;-1.510;2023-01-28T05:02:20;102023.88;;;6.81;54.93
21988;BME280;11158;53.404;-1.510;2023-01-28T05:04:46;102022.66;;;6.74;55.12
21988;BME280;11158;53.404;-1.510;2023-01-28T05:07:12;102027.91;;;7.42;53.74
21988;BME280;11158;53.404;-1.510;2023-01-28T05:09:38;102029.47;;;7.88;52.33
21988;BME280;11158;53.404;-1.510;2023-01-28T05:12:04;102027.50;;;8.22;51.15
21988;BME280;11158;53.404;-1.510;2023-01-28T05:14:29;102042.56;;;8.44;50.56
21988;BME280;11158;53.404;-1.510;2023-01-28T05:16:55;102037.19;;;8.23;51.05
21988;BME280;11158;53.404;-1.510;2023-01-28T05:19:21;102031.31;;;8.08;51.48
21988;BME280;11158;53.404;-1.510;2023-01-28T05:21:48;102018.50;;;8.55;50.87
21988;BME280;11158;53.404;-1.510;2023-01-28T05:24:17;102025.16;;;8.29;51.15
21988;BME280;11158;53.404;-1.510;2023-01-28T05:26:43;102018.44;;;8.25;51.61
21988;BME280;11158;53.404;-1.510;2023-01-28T05:29:09;102008.47;;;8.27;51.74
21988;BME280;11158;53.404;-1.510;2023-01-28T05:31:34;102004.41;;;8.44;51.08
21988;BME280;11158;53.404;-1.510;2023-01-28T05:34:00;102012.84;;;8.49;51.01
21988;BME280;11158;53.404;-1.510;2023-01-28T05:36:26;102014.34;;;8.63;50.92
21988;BME280;11158;53.404;-1.510;2023-01-28T05:38:52;102010.19;;;8.49;50.79
21988;BME280;11158;53.404;-1.510;2023-01-28T05:41:18;102013.56;;;8.30;51.44
21988;BME280;11158;53.404;-1.510;2023-01-28T05:43:43;102015.56;;;8.58;51.27
21988;BME280;11158;53.404;-1.510;2023-01-28T05:46:09;102015.75;;;8.97;50.08
21988;BME280;11158;53.404;-1.510;2023-01-28T05:48:35;102000.78;;;9.16;49.81
21988;BME280;11158;53.404;-1.510;2023-01-28T05:51:01;101997.78;;;9.40;49.25
21988;BME280;11158;53.404;-1.510;2023-01-28T05:53:26;101992.75;;;9.06;50.05
21988;BME280;11158;53.404;-1.510;2023-01-28T05:55:52;101984.72;;;9.37;49.76
21988;BME280;11158;53.404;-1.510;2023-01-28T05:58:20;101987.13;;;8.99;50.57
21988;BME280;11158;53.404;-1.510;2023-01-28T06:00:45;101976.56;;;8.88;50.91
21988;BME280;11158;53.404;-1.510;2023-01-28T06:03:11;101978.59;;;8.44;52.41
21988;BME280;11158;53.404;-1.510;2023-01-28T06:05:38;101978.53;;;8.34;53.50
21988;BME280;11158;53.404;-1.510;2023-01-28T06:08:04;101976.66;;;8.25;53.59
21988;BME280;11158;53.404;-1.510;2023-01-28T06:10:30;101979.63;;;8.32;54.52
21988;BME280;11158;53.404;-1.510;2023-01-28T06:12:56;101986.78;;;8.10;55.15
21988;BME280;11158;53.404;-1.510;2023-01-28T06:15:23;101984.75;;;8.96;53.40
21988;BME280;11158;53.404;-1.510;2023-01-28T06:17:48;101986.00;;;9.02;53.01
21988;BME280;11158;53.404;-1.510;2023-01-28T06:20:14;101997.97;;;8.77;53.66
21988;BME280;11158;53.404;-1.510;2023-01-28T06:22:41;101985.41;;;8.89;53.48
21988;BME280;11158;53.404;-1.510;2023-01-28T06:25:07;101989.69;;;8.07;55.89
21988;BME280;11158;53.404;-1.510;2023-01-28T06:27:33;101987.91;;;7.75;57.05
21988;BME280;11158;53.404;-1.510;2023-01-28T06:30:00;101990.19;;;7.80;57.77
21988;BME280;11158;53.404;-1.510;2023-01-28T06:32:26;101991.44;;;7.10;59.07
21988;BME280;11158;53.404;-1.510;2023-01-28T06:34:52;101990.28;;;7.46;59.50
21988;BME280;11158;53.404;-1.510;2023-01-28T06:37:17;101991.94;;;7.70;57.92
21988;BME280;11158;53.404;-1.510;2023-01-28T06:39:44;101994.00;;;7.66;57.31
21988;BME280;11158;53.404;-1.510;2023-01-28T06:42:10;101985.69;;;7.48;58.34
21988;BME280;11158;53.404;-1.510;2023-01-28T06:44:36;101981.28;;;7.38;58.57
21988;BME280;11158;53.404;-1.510;2023-01-28T06:47:01;101981.66;;;7.22;59.21
21988;BME280;11158;53.404;-1.510;2023-01-28T06:49:27;101983.94;;;7.38;58.72
21988;BME280;11158;53.404;-1.510;2023-01-28T06:51:53;101982.41;;;7.67;58.17
21988;BME280;11158;53.404;-1.510;2023-01-28T06:54:19;101980.38;;;7.48;57.82
21988;BME280;11158;53.404;-1.510;2023-01-28T06:56:45;101979.06;;;7.43;57.85
21988;BME280;11158;53.404;-1.510;2023-01-28T06:59:10;101977.16;;;7.33;58.68
21988;BME280;11158;53.404;-1.510;2023-01-28T07:01:36;101977.25;;;7.43;58.22
21988;BME280;11158;53.404;-1.510;2023-01-28T07:04:02;101976.66;;;7.40;57.97
21988;BME280;11158;53.404;-1.510;2023-01-28T07:06:28;101978.56;;;7.49;57.77
21988;BME280;11158;53.404;-1.510;2023-01-28T07:08:54;101969.44;;;7.19;58.47
21988;BME280;11158;53.404;-1.510;2023-01-28T07:11:19;101984.34;;;7.10;58.82
21988;BME280;11158;53.404;-1.510;2023-01-28T07:13:45;101990.50;;;7.22;58.68
21988;BME280;11158;53.404;-1.510;2023-01-28T07:16:12;101993.16;;;7.11;58.77
21988;BME280;11158;53.404;-1.510;2023-01-28T07:18:38;102006.00;;;6.95;59.38
21988;BME280;11158;53.404;-1.510;2023-01-28T07:21:04;102015.78;;;6.83;59.42
21988;BME280;11158;53.404;-1.510;2023-01-28T07:23:31;102022.88;;;6.71;59.65
21988;BME280;11158;53.404;-1.510;2023-01-28T07:26:03;102012.03;;;6.74;59.77
21988;BME280;11158;53.404;-1.510;2023-01-28T07:28:29;101998.38;;;7.12;58.72
21988;BME280;11158;53.404;-1.510;2023-01-28T07:30:55;102004.97;;;7.41;57.72
21988;BME280;11158;53.404;-1.510;2023-01-28T07:33:21;102014.69;;;6.97;59.27
21988;BME280;11158;53.404;-1.510;2023-01-28T07:35:47;102031.22;;;6.89;59.63
21988;BME280;11158;53.404;-1.510;2023-01-28T07:38:13;102022.06;;;6.93;59.32
21988;BME280;11158;53.404;-1.510;2023-01-28T07:40:40;102025.19;;;6.98;58.56
21988;BME280;11158;53.404;-1.510;2023-01-28T07:43:09;102034.34;;;7.39;58.15
21988;BME280;11158;53.404;-1.510;2023-01-28T07:45:36;102035.44;;;7.80;57.18
21988;BME280;11158;53.404;-1.510;2023-01-28T07:48:05;102027.09;;;8.06;55.63
21988;BME280;11158;53.404;-1.510;2023-01-28T07:50:33;102036.41;;;8.11;55.81
21988;BME280;11158;53.404;-1.510;2023-01-28T07:53:03;102026.31;;;8.47;54.58
21988;BME280;11158;53.404;-1.510;2023-01-28T07:55:30;102025.50;;;8.56;54.07
21988;BME280;11158;53.404;-1.510;2023-01-28T07:57:58;102024.19;;;8.72;53.46
21988;BME280;11158;53.404;-1.510;2023-01-28T08:00:26;102016.28;;;8.60;53.21
21988;BME280;11158;53.404;-1.510;2023-01-28T08:02:56;102013.41;;;8.31;54.32
21988;BME280;11158;53.404;-1.510;2023-01-28T08:05:24;102017.91;;;8.52;53.93
21988;BME280;11158;53.404;-1.510;2023-01-28T08:07:51;102030.66;;;8.69;53.48
21988;BME280;11158;53.404;-1.510;2023-01-28T08:10:20;102021.09;;;8.67;53.14
21988;BME280;11158;53.404;-1.510;2023-01-28T08:12:55;102012.72;;;8.50;53.25
21988;BME280;11158;53.404;-1.510;2023-01-28T08:15:24;102009.34;;;8.27;54.45
21988;BME280;11158;53.404;-1.510;2023-01-28T08:17:50;102007.56;;;8.16;54.30
21988;BME280;11158;53.404;-1.510;2023-01-28T08:20:16;102007.53;;;7.74;55.65
21988;BME280;11158;53.404;-1.510;2023-01-28T08:22:42;102009.03;;;7.88;55.48
21988;BME280;11158;53.404;-1.510;2023-01-28T08:25:08;102008.28;;;7.97;55.51
21988;BME280;11158;53.404;-1.510;2023-01-28T08:27:34;102002.94;;;7.97;55.13
21988;BME280;11158;53.404;-1.510;2023-01-28T08:30:00;102003.69;;;8.21;54.90
21988;BME280;11158;53.404;-1.510;2023-01-28T08:32:25;102001.59;;;8.45;54.41
21988;BME280;11158;53.404;-1.510;2023-01-28T08:34:51;102007.69;;;8.15;54.63
21988;BME280;11158;53.404;-1.510;2023-01-28T08:37:17;102004.59;;;7.78;56.37
21988;BME280;11158;53.404;-1.510;2023-01-28T08:39:43;102003.03;;;7.43;57.58
21988;BME280;11158;53.404;-1.510;2023-01-28T08:42:08;101999.56;;;7.20;58.76
21988;BME280;11158;53.404;-1.510;2023-01-28T08:44:34;101999.47;;;6.99;59.53
21988;BME280;11158;53.404;-1.510;2023-01-28T08:47:00;101991.97;;;6.81;60.38
21988;BME280;11158;53.404;-1.510;2023-01-28T08:49:26;101992.16;;;7.23;59.65
21988;BME280;11158;53.404;-1.510;2023-01-28T08:51:51;101990.22;;;7.25;59.24
21988;BME280;11158;53.404;-1.510;2023-01-28T08:54:18;101991.28;;;7.78;58.54
21988;BME280;11158;53.404;-1.510;2023-01-28T08:56:44;101987.41;;;7.49;58.22
21988;BME280;11158;53.404;-1.510;2023-01-28T08:59:10;102003.78;;;7.33;59.46
21988;BME280;11158;53.404;-1.510;2023-01-28T09:01:37;102008.91;;;7.90;58.78
21988;BME280;11158;53.404;-1.510;2023-01-28T09:04:03;102002.63;;;7.59;58.28
21988;BME280;11158;53.404;-1.510;2023-01-28T09:06:29;102009.44;;;8.05;57.34
21988;BME280;11158;53.404;-1.510;2023-01-28T09:08:58;102007.84;;;8.13;56.88
21988;BME280;11158;53.404;-1.510;2023-01-28T09:11:24;101998.28;;;8.11;57.11
21988;BME280;11158;53.404;-1.510;2023-01-28T09:13:50;102000.47;;;8.99;55.28
21988;BME280;11158;53.404;-1.510;2023-01-28T09:16:16;101993.88;;;9.04;54.71
21988;BME280;11158;53.404;-1.510;2023-01-28T09:18:43;101995.09;;;9.30;54.05
21988;BME280;11158;53.404;-1.510;2023-01-28T09:21:09;101991.59;;;9.69;52.66
21988;BME280;11158;53.404;-1.510;2023-01-28T09:23:36;101998.09;;;9.95;51.94
21988;BME280;11158;53.404;-1.510;2023-01-28T09:26:03;101999.72;;;10.25;51.00
21988;BME280;11158;53.404;-1.510;2023-01-28T09:28:30;102007.34;;;10.20;51.12
21988;BME280;11158;53.404;-1.510;2023-01-28T09:31:01;102011.56;;;10.33;51.21
21988;BME280;11158;53.404;-1.510;2023-01-28T09:33:27;102018.03;;;10.50;50.71
21988;BME280;11158;53.404;-1.510;2023-01-28T09:35:53;102011.47;;;10.72;49.97
21988;BME280;11158;53.404;-1.510;2023-01-28T09:38:19;102012.94;;;10.94;49.52
21988;BME280;11158;53.404;-1.510;2023-01-28T09:40:45;102022.06;;;11.01;49.06
21988;BME280;11158;53.404;-1.510;2023-01-28T09:43:27;102022.50;;;10.96;49.38
21988;BME280;11158;53.404;-1.510;2023-01-28T09:45:59;102022.38;;;10.98;49.24
21988;BME280;11158;53.404;-1.510;2023-01-28T09:48:31;102023.50;;;10.95;49.31
21988;BME280;11158;53.404;-1.510;2023-01-28T09:51:01;102030.59;;;11.14;48.85
21988;BME280;11158;53.404;-1.510;2023-01-28T09:53:33;102030.94;;;11.29;48.72
21988;BME280;11158;53.404;-1.510;2023-01-28T09:56:12;102023.63;;;11.49;48.39
21988;BME280;11158;53.404;-1.510;2023-01-28T09:58:41;102031.84;;;11.65;48.08
21988;BME280;11158;53.404;-1.510;2023-01-28T10:01:34;102023.41;;;11.60;48.23
21988;BME280;11158;53.404;-1.510;2023-01-28T10:04:14;102013.16;;;11.56;48.08
21988;BME280;11158;53.404;-1.510;2023-01-28T10:07:01;102018.91;;;11.61;48.15
21988;BME280;11158;53.404;-1.510;2023-01-28T10:09:43;102026.34;;;11.67;47.88
21988;BME280;11158;53.404;-1.510;2023-01-28T10:12:41;102038.94;;;11.57;48.42
21988;BME280;11158;53.404;-1.510;2023-01-28T10:15:34;102046.06;;;11.66;48.02
21988;BME280;11158;53.404;-1.510;2023-01-28T10:18:09;102043.56;;;11.82;47.45
21988;BME280;11158;53.404;-1.510;2023-01-28T10:20:53;102037.22;;;11.83;47.75
21988;BME280;11158;53.404;-1.510;2023-01-28T10:23:46;102032.66;;;11.93;47.66
21988;BME280;11158;53.404;-1.510;2023-01-28T10:26:21;102047.66;;;11.59;48.47
21988;BME280;11158;53.404;-1.510;2023-01-28T10:28:52;102046.28;;;10.99;49.79
21988;BME280;11158;53.404;-1.510;2023-01-28T10:31:21;102040.75;;;11.10;50.01
21988;BME280;11158;53.404;-1.510;2023-01-28T10:33:46;102050.03;;;11.44;49.17
21988;BME280;11158;53.404;-1.510;2023-01-28T10:36:14;102051.09;;;11.97;48.49
21988;BME280;11158;53.404;-1.510;2023-01-28T10:38:40;102038.34;;;12.34;47.21
21988;BME280;11158;53.404;-1.510;2023-01-28T10:41:10;102039.00;;;12.54;46.83
21988;BME280;11158;53.404;-1.510;2023-01-28T10:43:40;102039.94;;;12.71;46.55
21988;BME280;11158;53.404;-1.510;2023-01-28T10:46:12;102043.00;;;12.76;46.01
21988;BME280;11158;53.404;-1.510;2023-01-28T10:48:58;102034.94;;;12.50;46.41
21988;BME280;11158;53.404;-1.510;2023-01-28T10:51:35;102036.09;;;12.48;46.82
21988;BME280;11158;53.404;-1.510;2023-01-28T10:54:02;102044.00;;;12.49;46.59
21988;BME280;11158;53.404;-1.510;2023-01-28T10:56:30;102040.38;;;12.58;46.50
21988;BME280;11158;53.404;-1.510;2023-01-28T10:59:18;102039.97;;;12.09;47.87
21988;BME280;11158;53.404;-1.510;2023-01-28T11:01:55;102045.59;;;11.52;48.95
21988;BME280;11158;53.404;-1.510;2023-01-28T11:04:32;102058.75;;;11.46;49.78
21988;BME280;11158;53.404;-1.510;2023-01-28T11:07:04;102059.84;;;11.53;49.71
21988;BME280;11158;53.404;-1.510;2023-01-28T11:09:33;102053.03;;;11.31;50.50
21988;BME280;11158;53.404;-1.510;2023-01-28T11:12:18;102044.84;;;11.60;49.47
21988;BME280;11158;53.404;-1.510;2023-01-28T11:14:55;102059.47;;;11.38;50.80
21988;BME280;11158;53.404;-1.510;2023-01-28T11:17:23;102049.84;;;11.73;49.30
21988;BME280;11158;53.404;-1.510;2023-01-28T11:19:54;102056.72;;;11.02;50.91
21988;BME280;11158;53.404;-1.510;2023-01-28T11:22:35;102047.59;;;11.23;51.01
21988;BME280;11158;53.404;-1.510;2023-01-28T11:25:18;102048.34;;;10.78;51.49
21988;BME280;11158;53.404;-1.510;2023-01-28T11:27:47;102039.34;;;10.69;51.74
21988;BME280;11158;53.404;-1.510;2023-01-28T11:30:33;102047.91;;;10.82;52.08
21988;BME280;11158;53.404;-1.510;2023-01-28T11:33:23;102038.03;;;10.93;52.31
21988;BME280;11158;53.404;-1.510;2023-01-28T11:36:03;102027.84;;;10.96;52.17
21988;BME280;11158;53.404;-1.510;2023-01-28T11:38:29;102030.53;;;10.96;52.40
21988;BME280;11158;53.404;-1.510;2023-01-28T11:40:56;102032.50;;;10.94;52.33
21988;BME280;11158;53.404;-1.510;2023-01-28T11:43:28;102038.78;;;10.75;52.88
21988;BME280;11158;53.404;-1.510;2023-01-28T11:51:49;102028.09;;;10.75;53.00
21988;BME280;11158;53.404;-1.510;2023-01-28T11:57:21;102024.00;;;10.71;53.68
21988;BME280;11158;53.404;-1.510;2023-01-28T12:08:32;102011.59;;;10.80;53.66
21988;BME280;11158;53.404;-1.510;2023-01-28T12:35:33;101988.28;;;11.45;53.11
21988;BME280;11158;53.404;-1.510;2023-01-28T12:38:26;101986.38;;;11.73;52.65
21988;BME280;11158;53.404;-1.510;2023-01-28T12:40:53;101971.06;;;11.66;52.74
21988;BME280;11158;53.404;-1.510;2023-01-28T12:46:01;101964.13;;;11.73;52.61
21988;BME280;11158;53.404;-1.510;2023-01-28T12:48:34;101957.69;;;11.30;53.58
21988;BME280;11158;53.404;-1.510;2023-01-28T12:51:24;101954.38;;;11.18;54.17
21988;BME280;11158;53.404;-1.510;2023-01-28T12:53:57;101954.31;;;11.46;53.41
21988;BME280;11158;53.404;-1.510;2023-01-28T12:56:38;101946.22;;;11.56;53.21
21988;BME280;11158;53.404;-1.510;2023-01-28T12:59:11;101946.56;;;11.07;54.54
21988;BME280;11158;53.404;-1.510;2023-01-28T13:07:08;101959.84;;;12.24;51.86
21988;BME280;11158;53.404;-1.510;2023-01-28T13:09:38;101939.94;;;12.61;50.28
21988;BME280;11158;53.404;-1.510;2023-01-28T13:12:09;101940.22;;;12.50;50.26
21988;BME280;11158;53.404;-1.510;2023-01-28T13:14:36;101942.59;;;12.95;49.30
21988;BME280;11158;53.404;-1.510;2023-01-28T13:17:12;101946.16;;;12.09;51.89
21988;BME280;11158;53.404;-1.510;2023-01-28T13:19:48;101940.41;;;12.22;51.32
21988;BME280;11158;53.404;-1.510;2023-01-28T13:22:27;101951.78;;;11.80;52.60
21988;BME280;11158;53.404;-1.510;2023-01-28T13:24:53;101950.09;;;11.97;52.41
21988;BME280;11158;53.404;-1.510;2023-01-28T13:27:27;101952.31;;;11.66;53.19
21988;BME280;11158;53.404;-1.510;2023-01-28T13:30:21;101949.06;;;12.16;51.99
21988;BME280;11158;53.404;-1.510;2023-01-28T13:32:55;101951.81;;;11.98;52.65
21988;BME280;11158;53.404;-1.510;2023-01-28T13:35:38;101957.06;;;11.72;52.70
21988;BME280;11158;53.404;-1.510;2023-01-28T13:38:12;101950.66;;;11.65;53.24
21988;BME280;11158;53.404;-1.510;2023-01-28T13:40:40;101951.72;;;11.36;54.08
21988;BME280;11158;53.404;-1.510;2023-01-28T13:46:35;101955.41;;;12.67;51.12
21988;BME280;11158;53.404;-1.510;2023-01-28T13:49:01;101958.97;;;12.42;51.52
21988;BME280;11158;53.404;-1.510;2023-01-28T13:51:32;101953.78;;;12.48;51.38
21988;BME280;11158;53.404;-1.510;2023-01-28T13:54:04;101951.69;;;12.34;51.71
21988;BME280;11158;53.404;-1.510;2023-01-28T13:56:41;101947.69;;;13.07;49.94
21988;BME280;11158;53.404;-1.510;2023-01-28T14:12:59;101952.09;;;11.41;54.05
21988;BME280;11158;53.404;-1.510;2023-01-28T14:18:38;101948.97;;;11.64;52.72
21988;BME280;11158;53.404;-1.510;2023-01-28T14:21:12;101959.28;;;10.95;55.13
21988;BME280;11158;53.404;-1.510;2023-01-28T14:23:44;101952.25;;;11.58;53.66
21988;BME280;11158;53.404;-1.510;2023-01-28T14:26:36;101961.22;;;11.48;54.00
21988;BME280;11158;53.404;-1.510;2023-01-28T14:31:50;101959.16;;;11.96;53.07
21988;BME280;11158;53.404;-1.510;2023-01-28T14:34:31;101954.41;;;12.16;52.21
21988;BME280;11158;53.404;-1.510;2023-01-28T14:37:03;101961.28;;;11.39;53.88
21988;BME280;11158;53.404;-1.510;2023-01-28T14:42:42;101963.81;;;11.76;53.77